createdAt,value
2024-03-08T00:00:33.242Z,29.43
2024-03-08T00:03:02.176Z,27.00
2024-03-08T00:05:29.882Z,29.40
2024-03-08T00:07:57.605Z,27.63
2024-03-08T00:10:28.477Z,30.27
2024-03-08T00:12:56.530Z,25.87
2024-03-08T00:15:24.368Z,25.57
2024-03-08T00:17:52.120Z,26.43
2024-03-08T00:20:20.496Z,26.20
2024-03-08T00:22:48.585Z,27.73
2024-03-08T00:25:17.201Z,31.00
2024-03-08T00:27:46.177Z,29.73
2024-03-08T00:30:15.474Z,30.73
2024-03-08T00:32:43.408Z,29.70
2024-03-08T00:35:11.051Z,27.83
2024-03-08T00:37:38.624Z,28.47
2024-03-08T00:40:08.414Z,29.03
2024-03-08T00:42:36.167Z,28.57
2024-03-08T00:45:05.467Z,25.63
2024-03-08T00:47:33.156Z,26.97
2024-03-08T00:50:00.740Z,29.00
2024-03-08T00:52:28.517Z,30.07
2024-03-08T00:54:56.107Z,29.97
2024-03-08T00:57:23.740Z,26.83
2024-03-08T00:59:51.338Z,30.33
2024-03-08T01:02:20.488Z,27.30
2024-03-08T01:04:49.123Z,31.60
2024-03-08T01:07:16.820Z,25.23
2024-03-08T01:09:44.541Z,25.47
2024-03-08T01:12:12.395Z,28.87
2024-03-08T01:14:40.200Z,26.53
2024-03-08T01:17:07.855Z,26.67
2024-03-08T01:19:37.303Z,29.47
2024-03-08T01:22:05.295Z,27.80
2024-03-08T01:24:32.861Z,26.73
2024-03-08T01:27:00.841Z,29.00
2024-03-08T01:29:28.914Z,31.67
2024-03-08T01:31:57.168Z,28.07
2024-03-08T01:34:24.770Z,29.43
2024-03-08T01:36:53.696Z,30.13
2024-03-08T01:39:22.972Z,24.87
2024-03-08T01:41:50.603Z,24.93
2024-03-08T01:44:18.677Z,26.43
2024-03-08T01:46:46.689Z,28.07
2024-03-08T01:49:14.742Z,28.00
2024-03-08T01:51:42.970Z,24.83
2024-03-08T01:54:13.813Z,27.70
2024-03-08T01:56:41.738Z,28.77
2024-03-08T01:59:09.711Z,25.67
2024-03-08T02:01:37.380Z,27.50
2024-03-08T02:04:08.180Z,23.93
2024-03-08T02:06:35.813Z,27.80
2024-03-08T02:09:06.962Z,26.00
2024-03-08T02:11:37.331Z,24.87
2024-03-08T02:14:07.219Z,27.03
2024-03-08T02:16:34.952Z,25.80
2024-03-08T02:19:02.474Z,26.40
2024-03-08T02:21:32.020Z,22.97
2024-03-08T02:24:00.067Z,25.83
2024-03-08T02:26:28.250Z,26.70
2024-03-08T02:28:56.714Z,24.07
2024-03-08T02:31:24.305Z,26.63
2024-03-08T02:33:51.980Z,27.77
2024-03-08T02:36:19.772Z,23.63
2024-03-08T02:38:48.778Z,24.73
2024-03-08T02:41:16.329Z,26.23
2024-03-08T02:43:43.870Z,26.83
2024-03-08T02:46:11.594Z,27.53
2024-03-08T02:48:40.748Z,25.73
2024-03-08T02:51:08.455Z,23.43
2024-03-08T02:53:36.312Z,23.70
2024-03-08T02:56:05.832Z,24.20
2024-03-08T02:58:33.365Z,25.20
2024-03-08T03:01:00.969Z,24.97
2024-03-08T03:03:28.747Z,25.20
2024-03-08T03:05:57.260Z,24.93
2024-03-08T03:08:24.938Z,29.33
2024-03-08T03:10:52.558Z,24.50
2024-03-08T03:13:21.500Z,26.37
2024-03-08T03:15:49.131Z,24.50
2024-03-08T03:18:16.928Z,22.57
2024-03-08T03:20:45.371Z,23.40
2024-03-08T03:23:16.342Z,26.13
2024-03-08T03:25:44.829Z,24.80
2024-03-08T03:28:15.831Z,26.40
2024-03-08T03:30:45.401Z,25.20
2024-03-08T03:33:13.927Z,24.43
2024-03-08T03:35:42.547Z,22.50
2024-03-08T03:38:11.594Z,26.77
2024-03-08T03:40:40.380Z,23.67
2024-03-08T03:43:08.307Z,26.53
2024-03-08T03:45:37.825Z,25.03
2024-03-08T03:48:10.368Z,23.60
2024-03-08T03:50:38.567Z,27.00
2024-03-08T03:53:08.688Z,21.97
2024-03-08T03:55:37.949Z,24.57
2024-03-08T03:58:05.819Z,25.13
2024-03-08T04:00:33.892Z,25.10
2024-03-08T04:03:02.242Z,26.67
2024-03-08T04:05:32.114Z,26.83
2024-03-08T04:07:59.757Z,25.17
2024-03-08T04:10:27.409Z,25.50
2024-03-08T04:12:54.981Z,27.03
2024-03-08T04:15:22.659Z,29.53
2024-03-08T04:17:50.293Z,24.70
2024-03-08T04:20:18.664Z,24.43
2024-03-08T04:22:49.376Z,23.27
2024-03-08T04:25:17.083Z,24.43
2024-03-08T04:27:45.520Z,23.50
2024-03-08T04:30:13.853Z,23.97
2024-03-08T04:32:42.352Z,25.53
2024-03-08T04:35:10.285Z,27.20
2024-03-08T04:37:37.916Z,26.70
2024-03-08T04:40:07.660Z,24.97
2024-03-08T04:42:35.785Z,22.80
2024-03-08T04:45:03.545Z,22.53
2024-03-08T04:47:31.859Z,21.20
2024-03-08T04:49:59.443Z,21.60
2024-03-08T04:52:27.017Z,22.23
2024-03-08T04:54:54.573Z,25.37
2024-03-08T04:57:23.479Z,25.23
2024-03-08T04:59:51.120Z,22.97
2024-03-08T05:02:19.011Z,21.87
2024-03-08T05:04:46.576Z,21.23
2024-03-08T05:07:14.103Z,21.53
2024-03-08T05:09:42.166Z,26.47
2024-03-08T05:12:09.806Z,23.37
2024-03-08T05:14:38.724Z,23.43
2024-03-08T05:17:07.951Z,23.03
2024-03-08T05:19:35.640Z,23.20
2024-03-08T05:22:04.120Z,21.20
2024-03-08T05:24:32.060Z,20.37
2024-03-08T05:27:01.377Z,21.67
2024-03-08T05:29:29.991Z,22.67
2024-03-08T05:31:59.631Z,21.63
2024-03-08T05:34:27.261Z,22.20
2024-03-08T05:36:55.784Z,21.57
2024-03-08T05:39:24.562Z,21.07
2024-03-08T05:41:52.460Z,21.30
2024-03-08T05:44:20.091Z,19.97
2024-03-08T05:46:48.557Z,21.30
2024-03-08T05:49:17.701Z,21.83
2024-03-08T05:51:45.294Z,22.80
2024-03-08T05:54:15.525Z,21.00
2024-03-08T05:56:46.027Z,20.97
2024-03-08T05:59:14.598Z,22.53
2024-03-08T06:01:43.500Z,19.03
2024-03-08T06:04:12.115Z,23.13
2024-03-08T06:06:42.063Z,23.17
2024-03-08T06:09:13.457Z,21.63
2024-03-08T06:11:42.521Z,20.53
2024-03-08T06:14:10.190Z,22.57
2024-03-08T06:16:39.085Z,23.57
2024-03-08T06:19:06.928Z,24.37
2024-03-08T06:21:34.575Z,20.30
2024-03-08T06:24:03.526Z,19.07
2024-03-08T06:26:31.696Z,19.20
2024-03-08T06:29:00.050Z,22.67
2024-03-08T06:31:27.791Z,22.73
2024-03-08T06:33:57.373Z,21.63
2024-03-08T06:36:25.682Z,22.60
2024-03-08T06:38:53.690Z,20.10
2024-03-08T06:41:22.912Z,24.03
2024-03-08T06:43:52.755Z,21.33
2024-03-08T06:46:21.777Z,21.30
2024-03-08T06:48:50.328Z,19.53
2024-03-08T06:51:18.400Z,19.77
2024-03-08T06:53:45.984Z,22.33
2024-03-08T06:56:13.565Z,22.57
2024-03-08T06:58:43.304Z,18.90
2024-03-08T07:01:15.035Z,20.53
2024-03-08T07:03:45.370Z,19.57
2024-03-08T07:06:13.306Z,20.60
2024-03-08T07:08:41.334Z,19.97
2024-03-08T07:11:09.110Z,22.87
2024-03-08T07:13:36.709Z,22.53
2024-03-08T07:16:06.272Z,23.03
2024-03-08T07:18:35.541Z,18.67
2024-03-08T07:21:04.722Z,19.87
2024-03-08T07:23:49.804Z,20.87
2024-03-08T07:26:17.496Z,21.83
2024-03-08T07:28:45.032Z,19.93
2024-03-08T07:31:22.370Z,20.00
2024-03-08T07:33:51.472Z,20.47
2024-03-08T07:36:19.210Z,23.37
2024-03-08T07:38:48.058Z,20.93
2024-03-08T07:41:17.442Z,19.07
2024-03-08T07:43:45.049Z,21.97
2024-03-08T07:46:14.234Z,22.60
2024-03-08T07:48:42.162Z,19.57
2024-03-08T07:51:10.561Z,21.03
2024-03-08T07:53:39.023Z,25.20
2024-03-08T07:56:07.211Z,20.03
2024-03-08T07:58:35.885Z,21.53
2024-03-08T08:01:03.844Z,21.73
2024-03-08T08:03:32.913Z,20.47
2024-03-08T08:06:00.416Z,18.83
2024-03-08T08:08:28.146Z,22.03
2024-03-08T08:10:55.960Z,19.43
2024-03-08T08:13:24.479Z,18.83
2024-03-08T08:15:52.046Z,17.73
2024-03-08T08:18:22.605Z,19.37
2024-03-08T08:20:51.538Z,22.67
2024-03-08T08:23:20.412Z,23.40
2024-03-08T08:25:49.593Z,21.37
2024-03-08T08:28:18.480Z,20.30
2024-03-08T08:30:46.232Z,22.27
2024-03-08T08:33:14.696Z,19.80
2024-03-08T08:35:42.251Z,21.43
2024-03-08T08:38:11.290Z,19.40
2024-03-08T08:40:38.858Z,18.33
2024-03-08T08:43:06.725Z,21.47
2024-03-08T08:45:34.306Z,20.57
2024-03-08T08:48:01.970Z,24.57
2024-03-08T08:50:29.822Z,20.83
2024-03-08T08:52:57.801Z,19.03
2024-03-08T08:55:27.534Z,23.13
2024-03-08T08:57:55.705Z,23.50
2024-03-08T09:00:27.974Z,18.20
2024-03-08T09:02:56.268Z,19.40
2024-03-08T09:05:25.209Z,19.63
2024-03-08T09:07:54.049Z,22.40
2024-03-08T09:10:22.525Z,17.93
2024-03-08T09:12:51.568Z,17.80
2024-03-08T09:15:21.649Z,21.63
2024-03-08T09:17:49.683Z,18.53
2024-03-08T09:20:18.580Z,20.23
2024-03-08T09:22:46.265Z,20.37
2024-03-08T09:25:13.920Z,18.13
2024-03-08T09:27:42.221Z,19.43
2024-03-08T09:30:14.286Z,21.97
2024-03-08T09:32:42.294Z,18.67
2024-03-08T09:35:10.051Z,28.57
2024-03-08T09:37:38.661Z,22.43
2024-03-08T09:40:10.899Z,19.27
2024-03-08T09:42:39.658Z,19.43
2024-03-08T09:45:11.808Z,18.97
2024-03-08T09:47:41.451Z,17.33
2024-03-08T09:50:10.192Z,18.10
2024-03-08T09:52:38.325Z,18.50
2024-03-08T09:55:07.090Z,17.43
2024-03-08T09:57:34.882Z,18.37
2024-03-08T10:00:02.454Z,18.10
2024-03-08T10:02:32.515Z,17.03
2024-03-08T10:05:04.346Z,17.60
2024-03-08T10:07:31.947Z,19.80
2024-03-08T10:10:00.436Z,17.43
2024-03-08T10:12:29.579Z,15.63
2024-03-08T10:14:57.257Z,17.80
2024-03-08T10:17:25.554Z,17.17
2024-03-08T10:19:54.425Z,16.33
2024-03-08T10:22:23.507Z,18.67
2024-03-08T10:24:51.347Z,16.43
2024-03-08T10:27:19.011Z,17.87
2024-03-08T10:29:48.933Z,17.70
2024-03-08T10:32:16.856Z,18.17
2024-03-08T10:34:45.808Z,17.77
2024-03-08T10:37:18.492Z,16.13
2024-03-08T10:39:53.851Z,18.10
2024-03-08T10:42:25.715Z,18.83
2024-03-08T10:45:01.069Z,20.93
2024-03-08T10:47:31.099Z,18.77
2024-03-08T10:50:05.267Z,18.33
2024-03-08T10:52:33.576Z,16.77
2024-03-08T10:55:03.630Z,19.10
2024-03-08T10:57:32.240Z,19.60
2024-03-08T11:00:00.252Z,18.83
2024-03-08T11:02:28.427Z,16.17
2024-03-08T11:04:57.771Z,17.07
2024-03-08T11:07:28.710Z,18.30
2024-03-08T11:09:57.986Z,16.20
2024-03-08T11:12:30.272Z,18.03
2024-03-08T11:15:01.894Z,16.33
2024-03-08T11:17:42.614Z,17.93
2024-03-08T11:20:16.328Z,17.07
2024-03-08T11:22:46.434Z,15.23
2024-03-08T11:25:32.556Z,16.00
2024-03-08T11:28:10.532Z,14.53
2024-03-08T11:30:39.585Z,17.50
2024-03-08T11:33:10.804Z,16.83
2024-03-08T11:35:39.474Z,15.13
2024-03-08T11:38:07.765Z,15.13
2024-03-08T11:40:34.780Z,17.43
2024-03-08T11:43:04.328Z,15.53
2024-03-08T11:45:33.312Z,15.87
2024-03-08T11:48:01.928Z,17.17
2024-03-08T11:50:29.540Z,15.50
2024-03-08T11:53:02.258Z,18.33
2024-03-08T11:55:30.815Z,16.70
2024-03-08T11:58:02.082Z,16.60
2024-03-08T12:00:36.136Z,16.50
2024-03-08T12:03:05.798Z,14.93
2024-03-08T12:05:34.455Z,15.90
2024-03-08T12:08:02.731Z,16.00
2024-03-08T12:10:30.674Z,16.20
2024-03-08T12:13:00.362Z,15.70
2024-03-08T12:15:28.428Z,13.57
2024-03-08T12:17:56.918Z,15.33
2024-03-08T12:20:27.077Z,16.10
2024-03-08T12:22:57.758Z,15.57
2024-03-08T12:25:28.108Z,15.03
2024-03-08T12:27:58.064Z,14.60
2024-03-08T12:30:27.957Z,15.53
2024-03-08T12:32:57.994Z,15.93
2024-03-08T12:35:27.706Z,16.00
2024-03-08T12:37:55.794Z,14.43
2024-03-08T12:40:28.714Z,14.50
2024-03-08T12:42:56.864Z,13.47
2024-03-08T12:45:25.107Z,13.50
2024-03-08T12:47:54.131Z,14.37
2024-03-08T12:50:22.119Z,13.33
2024-03-08T12:52:53.873Z,14.37
2024-03-08T12:55:21.861Z,16.27
2024-03-08T12:57:50.010Z,12.93
2024-03-08T13:00:20.998Z,14.07
2024-03-08T13:02:48.612Z,15.17
2024-03-08T13:05:16.276Z,14.87
2024-03-08T13:07:47.170Z,17.47
2024-03-08T13:10:16.963Z,12.57
2024-03-08T13:12:44.594Z,13.17
2024-03-08T13:15:16.337Z,12.33
2024-03-08T13:17:45.718Z,15.03
2024-03-08T13:20:20.613Z,13.43
2024-03-08T13:22:52.879Z,13.60
2024-03-08T13:25:21.889Z,12.20
2024-03-08T13:27:50.080Z,13.13
2024-03-08T13:30:19.583Z,13.63
2024-03-08T13:32:47.550Z,12.73
2024-03-08T13:35:15.211Z,12.77
2024-03-08T13:37:42.781Z,12.23
2024-03-08T13:40:14.837Z,12.70
2024-03-08T13:42:43.806Z,13.40
2024-03-08T13:45:13.021Z,12.60
2024-03-08T13:47:41.855Z,11.47
2024-03-08T13:50:12.827Z,13.27
2024-03-08T13:52:40.870Z,14.47
2024-03-08T13:55:08.941Z,13.87
2024-03-08T13:57:36.618Z,12.90
2024-03-08T14:00:08.013Z,13.80
2024-03-08T14:02:41.814Z,13.93
2024-03-08T14:05:10.299Z,15.30
2024-03-08T14:07:38.001Z,15.10
2024-03-08T14:10:07.923Z,14.03
2024-03-08T14:12:36.134Z,13.43
2024-03-08T14:15:07.073Z,15.00
2024-03-08T14:17:34.716Z,15.97
2024-03-08T14:20:02.654Z,14.83
2024-03-08T14:22:32.524Z,13.60
2024-03-08T14:25:01.165Z,13.10
2024-03-08T14:27:30.464Z,12.67
2024-03-08T14:29:59.070Z,15.77
2024-03-08T14:32:29.466Z,13.67
2024-03-08T14:34:57.357Z,14.97
2024-03-08T14:37:29.191Z,14.53
2024-03-08T14:39:57.364Z,13.10
2024-03-08T14:42:25.112Z,13.77
2024-03-08T14:44:55.200Z,12.83
2024-03-08T14:47:23.274Z,15.57
2024-03-08T14:49:52.240Z,14.83
2024-03-08T14:52:36.697Z,12.83
2024-03-08T14:55:05.638Z,15.50
2024-03-08T14:57:33.754Z,14.40
2024-03-08T15:00:06.711Z,14.60
2024-03-08T15:02:37.545Z,15.10
2024-03-08T15:05:10.266Z,14.23
2024-03-08T15:07:38.168Z,12.57
2024-03-08T15:10:11.776Z,13.93
2024-03-08T15:12:40.316Z,12.60
2024-03-08T15:15:09.447Z,12.63
2024-03-08T15:17:37.713Z,13.73
2024-03-08T15:20:11.673Z,13.90
2024-03-08T15:22:40.518Z,13.70
2024-03-08T15:25:08.521Z,13.83
2024-03-08T15:27:39.738Z,13.57
2024-03-08T15:30:09.159Z,13.67
2024-03-08T15:32:36.765Z,14.17
2024-03-08T15:35:05.721Z,14.30
2024-03-08T15:37:34.841Z,14.60
2024-03-08T15:40:07.255Z,13.40
2024-03-08T15:42:35.104Z,14.83
2024-03-08T15:45:02.647Z,15.13
2024-03-08T15:47:30.187Z,13.13
2024-03-08T15:49:57.976Z,14.30
2024-03-08T15:52:25.767Z,13.30
2024-03-08T15:54:54.683Z,14.67
2024-03-08T15:57:22.360Z,14.20
2024-03-08T15:59:50.178Z,13.57
2024-03-08T16:02:19.751Z,13.73
2024-03-08T16:04:47.463Z,13.83
2024-03-08T16:07:15.125Z,14.93
2024-03-08T16:09:43.456Z,14.77
2024-03-08T16:12:12.860Z,14.53
2024-03-08T16:14:40.629Z,15.57
2024-03-08T16:17:08.149Z,15.03
2024-03-08T16:19:36.633Z,14.37
2024-03-08T16:22:05.729Z,12.80
2024-03-08T16:24:34.193Z,14.77
2024-03-08T16:27:03.405Z,15.70
2024-03-08T16:29:32.786Z,14.37
2024-03-08T16:32:00.475Z,17.17
2024-03-08T16:34:28.343Z,15.13
2024-03-08T16:36:55.901Z,15.70
2024-03-08T16:39:24.753Z,15.87
2024-03-08T16:41:53.408Z,14.97
2024-03-08T16:44:21.980Z,17.50
2024-03-08T16:46:50.976Z,15.80
2024-03-08T16:49:18.603Z,16.47
2024-03-08T16:51:46.204Z,15.93
2024-03-08T16:54:13.787Z,13.50
2024-03-08T16:56:44.043Z,14.13
2024-03-08T16:59:11.623Z,15.17
2024-03-08T17:01:39.691Z,15.97
2024-03-08T17:04:08.694Z,14.30
2024-03-08T17:06:36.232Z,17.37
2024-03-08T17:09:11.647Z,19.23
2024-03-08T17:11:39.365Z,16.20
2024-03-08T17:14:07.096Z,18.53
2024-03-08T17:16:36.996Z,18.87
2024-03-08T17:19:07.370Z,20.00
2024-03-08T17:21:36.248Z,24.03
2024-03-08T17:24:04.813Z,21.00
2024-03-08T17:26:33.199Z,18.43
2024-03-08T17:29:01.112Z,14.47
2024-03-08T17:31:28.867Z,14.23
2024-03-08T17:33:56.604Z,16.60
2024-03-08T17:36:24.196Z,15.07
2024-03-08T17:38:53.966Z,13.70
2024-03-08T17:41:24.600Z,12.30
2024-03-08T17:43:53.000Z,15.00
2024-03-08T17:46:21.085Z,15.17
2024-03-08T17:48:48.760Z,17.77
2024-03-08T17:51:17.086Z,15.23
2024-03-08T17:53:45.853Z,15.53
2024-03-08T17:56:14.814Z,14.70
2024-03-08T17:58:42.439Z,13.47
2024-03-08T18:01:12.965Z,13.17
2024-03-08T18:03:41.424Z,14.30
2024-03-08T18:06:10.118Z,13.93
2024-03-08T18:08:38.031Z,14.73
2024-03-08T18:11:05.693Z,14.57
2024-03-08T18:13:34.682Z,15.07
2024-03-08T18:16:02.210Z,17.43
2024-03-08T18:18:29.817Z,17.33
2024-03-08T18:20:57.428Z,15.73
2024-03-08T18:23:25.013Z,15.87
2024-03-08T18:25:52.576Z,16.73
2024-03-08T18:28:20.520Z,16.33
2024-03-08T18:30:51.748Z,17.93
2024-03-08T18:33:21.926Z,18.43
2024-03-08T18:35:49.505Z,15.30
2024-03-08T18:38:19.702Z,18.53
2024-03-08T18:40:48.982Z,17.00
2024-03-08T18:43:18.165Z,16.47
2024-03-08T18:45:46.712Z,16.87
2024-03-08T18:48:15.905Z,17.23
2024-03-08T18:50:46.351Z,15.70
2024-03-08T18:53:14.034Z,16.90
2024-03-08T18:55:44.432Z,19.37
2024-03-08T18:58:12.185Z,17.23
2024-03-08T19:00:40.464Z,20.00
2024-03-08T19:03:10.217Z,19.67
2024-03-08T19:05:41.256Z,17.93
2024-03-08T19:08:09.774Z,17.97
2024-03-08T19:10:39.066Z,18.60
2024-03-08T19:13:09.563Z,18.10
2024-03-08T19:15:39.155Z,17.57
2024-03-08T19:18:08.653Z,15.40
2024-03-08T19:20:36.892Z,15.07
2024-03-08T19:23:07.079Z,15.10
2024-03-08T19:25:35.972Z,16.73
2024-03-08T19:28:06.008Z,16.17
2024-03-08T19:30:34.224Z,17.43
2024-03-08T19:33:02.576Z,15.80
2024-03-08T19:35:30.740Z,15.50
2024-03-08T19:38:00.081Z,15.40
2024-03-08T19:40:33.339Z,15.83
2024-03-08T19:43:01.510Z,15.53
2024-03-08T19:45:30.363Z,15.70
2024-03-08T19:48:00.146Z,16.37
2024-03-08T19:50:28.262Z,15.17
2024-03-08T19:52:56.429Z,21.20
2024-03-08T19:55:24.467Z,16.27
2024-03-08T19:57:54.924Z,17.47
2024-03-08T20:00:26.649Z,16.23
2024-03-08T20:02:55.746Z,15.73
2024-03-08T20:05:25.637Z,15.97
2024-03-08T20:07:55.878Z,16.97
2024-03-08T20:10:24.482Z,15.93
2024-03-08T20:12:54.726Z,15.73
2024-03-08T20:15:26.098Z,15.80
2024-03-08T20:17:54.384Z,16.13
2024-03-08T20:20:22.747Z,15.23
2024-03-08T20:22:51.671Z,16.17
2024-03-08T20:25:20.217Z,14.13
2024-03-08T20:27:52.258Z,15.10
2024-03-08T20:30:23.435Z,17.83
2024-03-08T20:32:53.599Z,14.73
2024-03-08T20:35:22.019Z,15.37
2024-03-08T20:37:49.985Z,17.63
2024-03-08T20:40:24.655Z,20.33
2024-03-08T20:42:53.235Z,21.23
2024-03-08T20:45:25.129Z,20.13
2024-03-08T20:47:54.589Z,17.73
2024-03-08T20:50:24.934Z,15.47
2024-03-08T20:52:54.239Z,16.10
2024-03-08T20:55:22.997Z,14.43
2024-03-08T20:57:50.772Z,14.20
2024-03-08T21:00:35.597Z,14.53
2024-03-08T21:03:06.475Z,15.17
2024-03-08T21:05:35.059Z,13.80
2024-03-08T21:08:06.181Z,18.17
2024-03-08T21:10:35.993Z,16.40
2024-03-08T21:13:03.907Z,16.37
2024-03-08T21:15:31.618Z,19.27
2024-03-08T21:17:59.811Z,17.93
2024-03-08T21:20:29.087Z,20.80
2024-03-08T21:22:57.402Z,20.87
2024-03-08T21:25:25.667Z,18.63
2024-03-08T21:27:53.573Z,16.93
2024-03-08T21:30:22.011Z,20.07
2024-03-08T21:32:49.731Z,16.40
2024-03-08T21:35:20.736Z,16.80
2024-03-08T21:37:49.858Z,19.10
2024-03-08T21:40:22.855Z,17.33
2024-03-08T21:42:51.142Z,16.03
2024-03-08T21:45:18.664Z,14.13
2024-03-08T21:47:46.467Z,16.47
2024-03-08T21:50:16.161Z,15.90
2024-03-08T21:52:44.564Z,17.03
2024-03-08T21:55:15.585Z,15.70
2024-03-08T21:57:44.167Z,16.83
2024-03-08T22:00:13.185Z,17.60
2024-03-08T22:02:41.494Z,18.00
2024-03-08T22:05:09.755Z,15.93
2024-03-08T22:07:37.755Z,18.17
2024-03-08T22:10:05.695Z,16.30
2024-03-08T22:12:35.077Z,15.80
2024-03-08T22:15:02.787Z,16.43
2024-03-08T22:17:31.196Z,17.07
2024-03-08T22:20:04.956Z,17.00
2024-03-08T22:22:32.606Z,17.07
2024-03-08T22:25:01.704Z,16.00
2024-03-08T22:27:29.230Z,15.43
2024-03-08T22:29:58.110Z,15.80
2024-03-08T22:32:25.692Z,16.40
2024-03-08T22:34:53.290Z,15.17
2024-03-08T22:37:21.018Z,15.93
2024-03-08T22:39:49.276Z,16.80
2024-03-08T22:42:16.854Z,17.30
2024-03-08T22:44:44.381Z,17.43
2024-03-08T22:47:13.313Z,16.80
2024-03-08T22:49:40.863Z,17.47
2024-03-08T22:52:08.370Z,16.20
2024-03-08T22:54:36.004Z,17.27
2024-03-08T22:57:09.316Z,15.87
2024-03-08T22:59:38.107Z,17.80
2024-03-08T23:02:05.772Z,17.17
2024-03-08T23:04:34.851Z,16.03
2024-03-08T23:07:02.530Z,17.97
2024-03-08T23:09:32.890Z,16.13
2024-03-08T23:12:00.836Z,16.83
2024-03-08T23:14:28.370Z,16.60
2024-03-08T23:16:55.999Z,16.30
2024-03-08T23:19:24.214Z,18.67
2024-03-08T23:21:54.916Z,16.93
2024-03-08T23:24:22.452Z,16.37
2024-03-08T23:26:49.964Z,15.73
2024-03-08T23:29:18.641Z,16.57
2024-03-08T23:31:46.327Z,17.80
2024-03-08T23:34:13.905Z,17.87
2024-03-08T23:36:41.775Z,15.23
2024-03-08T23:39:12.854Z,16.17
2024-03-08T23:41:41.961Z,17.17
2024-03-08T23:44:09.740Z,15.97
2024-03-08T23:46:37.491Z,17.57
2024-03-08T23:49:05.087Z,18.03
2024-03-08T23:51:32.707Z,17.10
2024-03-08T23:54:00.297Z,17.10
2024-03-08T23:56:31.394Z,15.53
2024-03-08T23:59:02.638Z,15.03
